sensor_id;sensor_type;location;lat;lon;timestamp;P1;durP1;ratioP1;P2;durP2;ratioP2
60006;SDS011;45863;50.336;3.536;2023-04-29T00:00:13;24.10;;;10.93;;
60006;SDS011;45863;50.336;3.536;2023-04-29T00:02:38;20.77;;;10.82;;
60006;SDS011;45863;50.336;3.536;2023-04-29T00:05:04;20.92;;;10.80;;
60006;SDS011;45863;50.336;3.536;2023-04-29T00:07:30;25.05;;;10.98;;
60006;SDS011;45863;50.336;3.536;2023-04-29T00:09:56;24.35;;;10.85;;
60006;SDS011;45863;50.336;3.536;2023-04-29T00:12:21;22.77;;;11.38;;
60006;SDS011;45863;50.336;3.536;2023-04-29T00:14:47;25.48;;;11.23;;
60006;SDS011;45863;50.336;3.536;2023-04-29T00:17:12;25.30;;;11.30;;
60006;SDS011;45863;50.336;3.536;2023-04-29T00:19:37;25.57;;;11.70;;
60006;SDS011;45863;50.336;3.536;2023-04-29T00:22:02;25.95;;;11.40;;
60006;SDS011;45863;50.336;3.536;2023-04-29T00:24:27;31.05;;;12.90;;
60006;SDS011;45863;50.336;3.536;2023-04-29T00:26:53;23.35;;;10.98;;
60006;SDS011;45863;50.336;3.536;2023-04-29T00:29:18;21.53;;;11.33;;
60006;SDS011;45863;50.336;3.536;2023-04-29T00:31:44;30.83;;;12.73;;
60006;SDS011;45863;50.336;3.536;2023-04-29T00:34:10;25.65;;;12.52;;
60006;SDS011;45863;50.336;3.536;2023-04-29T00:36:35;27.45;;;12.38;;
60006;SDS011;45863;50.336;3.536;2023-04-29T00:39:00;25.50;;;12.00;;
60006;SDS011;45863;50.336;3.536;2023-04-29T00:41:28;28.02;;;13.63;;
60006;SDS011;45863;50.336;3.536;2023-04-29T00:43:53;28.13;;;13.25;;
60006;SDS011;45863;50.336;3.536;2023-04-29T00:46:19;23.67;;;12.77;;
60006;SDS011;45863;50.336;3.536;2023-04-29T00:48:44;28.73;;;14.07;;
60006;SDS011;45863;50.336;3.536;2023-04-29T00:51:09;32.33;;;14.15;;
60006;SDS011;45863;50.336;3.536;2023-04-29T00:53:35;36.88;;;14.48;;
60006;SDS011;45863;50.336;3.536;2023-04-29T00:56:00;37.67;;;14.75;;
60006;SDS011;45863;50.336;3.536;2023-04-29T00:58:26;29.50;;;14.82;;
60006;SDS011;45863;50.336;3.536;2023-04-29T01:00:57;31.83;;;14.98;;
60006;SDS011;45863;50.336;3.536;2023-04-29T01:03:22;31.27;;;14.35;;
60006;SDS011;45863;50.336;3.536;2023-04-29T01:05:47;29.05;;;15.23;;
60006;SDS011;45863;50.336;3.536;2023-04-29T01:08:27;34.22;;;18.30;;
60006;SDS011;45863;50.336;3.536;2023-04-29T01:10:59;32.10;;;16.88;;
60006;SDS011;45863;50.336;3.536;2023-04-29T01:13:29;39.08;;;18.25;;
60006;SDS011;45863;50.336;3.536;2023-04-29T01:16:02;35.88;;;18.50;;
60006;SDS011;45863;50.336;3.536;2023-04-29T01:19:05;36.60;;;18.58;;
60006;SDS011;45863;50.336;3.536;2023-04-29T01:21:23;36.92;;;20.23;;
60006;SDS011;45863;50.336;3.536;2023-04-29T01:23:48;36.70;;;20.30;;
60006;SDS011;45863;50.336;3.536;2023-04-29T01:36:32;44.95;;;24.50;;
60006;SDS011;45863;50.336;3.536;2023-04-29T01:41:50;45.05;;;27.92;;
60006;SDS011;45863;50.336;3.536;2023-04-29T01:44:18;47.20;;;28.63;;
60006;SDS011;45863;50.336;3.536;2023-04-29T01:46:50;50.47;;;28.20;;
60006;SDS011;45863;50.336;3.536;2023-04-29T01:49:20;44.08;;;26.65;;
60006;SDS011;45863;50.336;3.536;2023-04-29T01:51:45;49.95;;;28.30;;
60006;SDS011;45863;50.336;3.536;2023-04-29T01:54:10;52.73;;;29.73;;
60006;SDS011;45863;50.336;3.536;2023-04-29T01:56:35;50.17;;;30.80;;
60006;SDS011;45863;50.336;3.536;2023-04-29T01:59:01;49.15;;;30.38;;
60006;SDS011;45863;50.336;3.536;2023-04-29T02:01:26;56.15;;;30.38;;
60006;SDS011;45863;50.336;3.536;2023-04-29T02:03:51;53.13;;;30.25;;
60006;SDS011;45863;50.336;3.536;2023-04-29T02:06:17;55.63;;;31.88;;
60006;SDS011;45863;50.336;3.536;2023-04-29T02:08:42;55.17;;;32.05;;
60006;SDS011;45863;50.336;3.536;2023-04-29T02:11:07;59.08;;;35.13;;
60006;SDS011;45863;50.336;3.536;2023-04-29T02:13:32;66.63;;;38.13;;
60006;SDS011;45863;50.336;3.536;2023-04-29T02:16:05;66.03;;;36.77;;
60006;SDS011;45863;50.336;3.536;2023-04-29T02:18:31;71.35;;;38.72;;
60006;SDS011;45863;50.336;3.536;2023-04-29T02:20:59;67.30;;;37.03;;
60006;SDS011;45863;50.336;3.536;2023-04-29T02:23:25;64.82;;;35.80;;
60006;SDS011;45863;50.336;3.536;2023-04-29T02:25:50;69.17;;;35.10;;
60006;SDS011;45863;50.336;3.536;2023-04-29T02:28:16;61.47;;;35.17;;
60006;SDS011;45863;50.336;3.536;2023-04-29T02:30:41;65.45;;;34.70;;
60006;SDS011;45863;50.336;3.536;2023-04-29T02:33:07;62.33;;;35.20;;
60006;SDS011;45863;50.336;3.536;2023-04-29T02:35:32;61.13;;;33.55;;
60006;SDS011;45863;50.336;3.536;2023-04-29T02:37:57;62.20;;;33.20;;
60006;SDS011;45863;50.336;3.536;2023-04-29T02:40:22;63.87;;;35.67;;
60006;SDS011;45863;50.336;3.536;2023-04-29T02:42:49;63.90;;;33.50;;
60006;SDS011;45863;50.336;3.536;2023-04-29T02:45:14;62.63;;;34.95;;
60006;SDS011;45863;50.336;3.536;2023-04-29T02:47:40;63.10;;;34.08;;
60006;SDS011;45863;50.336;3.536;2023-04-29T02:50:05;60.33;;;32.28;;
60006;SDS011;45863;50.336;3.536;2023-04-29T02:52:31;61.60;;;32.35;;
60006;SDS011;45863;50.336;3.536;2023-04-29T02:54:56;55.05;;;30.45;;
60006;SDS011;45863;50.336;3.536;2023-04-29T02:57:21;50.33;;;29.13;;
60006;SDS011;45863;50.336;3.536;2023-04-29T02:59:47;50.22;;;27.92;;
60006;SDS011;45863;50.336;3.536;2023-04-29T03:02:12;52.90;;;28.13;;
60006;SDS011;45863;50.336;3.536;2023-04-29T03:04:37;51.53;;;28.77;;
60006;SDS011;45863;50.336;3.536;2023-04-29T03:07:04;46.83;;;26.98;;
60006;SDS011;45863;50.336;3.536;2023-04-29T03:09:29;50.00;;;26.67;;
60006;SDS011;45863;50.336;3.536;2023-04-29T03:11:55;51.65;;;27.75;;
60006;SDS011;45863;50.336;3.536;2023-04-29T03:14:21;47.88;;;26.88;;
60006;SDS011;45863;50.336;3.536;2023-04-29T03:16:46;51.40;;;28.73;;
60006;SDS011;45863;50.336;3.536;2023-04-29T03:19:11;52.50;;;28.17;;
60006;SDS011;45863;50.336;3.536;2023-04-29T03:21:37;52.03;;;29.70;;
60006;SDS011;45863;50.336;3.536;2023-04-29T03:24:04;52.38;;;29.00;;
60006;SDS011;45863;50.336;3.536;2023-04-29T03:26:30;57.08;;;30.83;;
60006;SDS011;45863;50.336;3.536;2023-04-29T03:28:56;55.58;;;28.33;;
60006;SDS011;45863;50.336;3.536;2023-04-29T03:31:22;52.45;;;28.23;;
60006;SDS011;45863;50.336;3.536;2023-04-29T03:33:48;53.92;;;29.60;;
60006;SDS011;45863;50.336;3.536;2023-04-29T03:36:14;52.42;;;29.33;;
60006;SDS011;45863;50.336;3.536;2023-04-29T03:38:40;52.33;;;28.77;;
60006;SDS011;45863;50.336;3.536;2023-04-29T03:41:05;54.70;;;27.08;;
60006;SDS011;45863;50.336;3.536;2023-04-29T03:43:31;47.90;;;27.52;;
60006;SDS011;45863;50.336;3.536;2023-04-29T03:45:56;45.40;;;27.15;;
60006;SDS011;45863;50.336;3.536;2023-04-29T03:48:21;47.13;;;25.90;;
60006;SDS011;45863;50.336;3.536;2023-04-29T03:50:47;49.90;;;28.02;;
60006;SDS011;45863;50.336;3.536;2023-04-29T03:53:12;47.53;;;26.02;;
60006;SDS011;45863;50.336;3.536;2023-04-29T03:55:38;50.20;;;26.63;;
60006;SDS011;45863;50.336;3.536;2023-04-29T03:58:03;51.40;;;28.07;;
60006;SDS011;45863;50.336;3.536;2023-04-29T04:00:29;51.28;;;28.80;;
60006;SDS011;45863;50.336;3.536;2023-04-29T04:02:55;46.45;;;27.23;;
60006;SDS011;45863;50.336;3.536;2023-04-29T04:05:20;47.58;;;26.52;;
60006;SDS011;45863;50.336;3.536;2023-04-29T04:07:49;51.60;;;28.48;;
60006;SDS011;45863;50.336;3.536;2023-04-29T04:10:14;46.92;;;26.70;;
60006;SDS011;45863;50.336;3.536;2023-04-29T04:12:39;44.13;;;24.38;;
60006;SDS011;45863;50.336;3.536;2023-04-29T04:15:04;41.80;;;23.50;;
60006;SDS011;45863;50.336;3.536;2023-04-29T04:17:30;41.28;;;24.58;;
60006;SDS011;45863;50.336;3.536;2023-04-29T04:19:55;39.42;;;22.75;;
60006;SDS011;45863;50.336;3.536;2023-04-29T04:22:20;39.83;;;22.02;;
60006;SDS011;45863;50.336;3.536;2023-04-29T04:24:46;37.25;;;21.17;;
60006;SDS011;45863;50.336;3.536;2023-04-29T04:27:11;34.47;;;21.50;;
60006;SDS011;45863;50.336;3.536;2023-04-29T04:29:37;39.72;;;21.25;;
60006;SDS011;45863;50.336;3.536;2023-04-29T04:32:02;35.95;;;20.98;;
60006;SDS011;45863;50.336;3.536;2023-04-29T04:34:28;39.97;;;23.50;;
60006;SDS011;45863;50.336;3.536;2023-04-29T04:36:53;42.35;;;23.80;;
60006;SDS011;45863;50.336;3.536;2023-04-29T04:39:18;46.05;;;25.75;;
60006;SDS011;45863;50.336;3.536;2023-04-29T04:41:43;43.47;;;25.93;;
60006;SDS011;45863;50.336;3.536;2023-04-29T04:44:08;50.57;;;26.20;;
60006;SDS011;45863;50.336;3.536;2023-04-29T04:46:34;42.22;;;26.35;;
60006;SDS011;45863;50.336;3.536;2023-04-29T04:49:00;43.63;;;25.38;;
60006;SDS011;45863;50.336;3.536;2023-04-29T04:51:26;46.03;;;24.70;;
60006;SDS011;45863;50.336;3.536;2023-04-29T04:53:52;40.72;;;24.70;;
60006;SDS011;45863;50.336;3.536;2023-04-29T04:56:18;46.10;;;25.90;;
60006;SDS011;45863;50.336;3.536;2023-04-29T04:58:43;44.97;;;24.57;;
60006;SDS011;45863;50.336;3.536;2023-04-29T05:01:08;43.15;;;23.90;;
60006;SDS011;45863;50.336;3.536;2023-04-29T05:03:33;44.97;;;23.73;;
60006;SDS011;45863;50.336;3.536;2023-04-29T05:05:59;42.00;;;24.38;;
60006;SDS011;45863;50.336;3.536;2023-04-29T05:08:25;45.10;;;25.38;;
60006;SDS011;45863;50.336;3.536;2023-04-29T05:10:50;45.15;;;24.35;;
60006;SDS011;45863;50.336;3.536;2023-04-29T05:13:16;48.50;;;26.30;;
60006;SDS011;45863;50.336;3.536;2023-04-29T05:15:41;44.25;;;24.17;;
60006;SDS011;45863;50.336;3.536;2023-04-29T05:18:07;54.25;;;25.92;;
60006;SDS011;45863;50.336;3.536;2023-04-29T05:20:32;42.08;;;24.90;;
60006;SDS011;45863;50.336;3.536;2023-04-29T05:22:57;41.80;;;25.43;;
60006;SDS011;45863;50.336;3.536;2023-04-29T05:25:22;50.40;;;25.55;;
60006;SDS011;45863;50.336;3.536;2023-04-29T05:27:47;42.95;;;24.60;;
60006;SDS011;45863;50.336;3.536;2023-04-29T05:30:13;46.17;;;25.80;;
60006;SDS011;45863;50.336;3.536;2023-04-29T05:32:38;47.75;;;25.77;;
60006;SDS011;45863;50.336;3.536;2023-04-29T05:35:03;46.42;;;26.23;;
60006;SDS011;45863;50.336;3.536;2023-04-29T05:37:29;48.70;;;26.52;;
60006;SDS011;45863;50.336;3.536;2023-04-29T05:39:56;44.70;;;25.95;;
60006;SDS011;45863;50.336;3.536;2023-04-29T05:42:21;49.13;;;26.73;;
60006;SDS011;45863;50.336;3.536;2023-04-29T05:44:47;44.60;;;26.17;;
60006;SDS011;45863;50.336;3.536;2023-04-29T05:47:12;47.38;;;26.55;;
60006;SDS011;45863;50.336;3.536;2023-04-29T05:49:38;44.10;;;24.37;;
60006;SDS011;45863;50.336;3.536;2023-04-29T05:52:03;43.75;;;22.98;;
60006;SDS011;45863;50.336;3.536;2023-04-29T05:54:30;47.50;;;24.05;;
60006;SDS011;45863;50.336;3.536;2023-04-29T05:56:56;39.97;;;22.15;;
60006;SDS011;45863;50.336;3.536;2023-04-29T05:59:21;35.28;;;22.00;;
60006;SDS011;45863;50.336;3.536;2023-04-29T06:01:46;38.88;;;21.17;;
60006;SDS011;45863;50.336;3.536;2023-04-29T06:04:11;39.30;;;20.92;;
60006;SDS011;45863;50.336;3.536;2023-04-29T06:06:37;34.70;;;19.70;;
60006;SDS011;45863;50.336;3.536;2023-04-29T06:09:02;34.58;;;19.35;;
60006;SDS011;45863;50.336;3.536;2023-04-29T06:11:28;35.63;;;19.45;;
60006;SDS011;45863;50.336;3.536;2023-04-29T06:13:53;42.20;;;20.10;;
60006;SDS011;45863;50.336;3.536;2023-04-29T06:16:18;36.50;;;19.77;;
60006;SDS011;45863;50.336;3.536;2023-04-29T06:18:44;35.55;;;19.58;;
60006;SDS011;45863;50.336;3.536;2023-04-29T06:21:09;35.33;;;20.33;;
60006;SDS011;45863;50.336;3.536;2023-04-29T06:23:35;39.58;;;21.50;;
60006;SDS011;45863;50.336;3.536;2023-04-29T06:26:00;38.08;;;20.30;;
60006;SDS011;45863;50.336;3.536;2023-04-29T06:28:25;37.38;;;19.95;;
60006;SDS011;45863;50.336;3.536;2023-04-29T06:30:51;35.78;;;18.50;;
60006;SDS011;45863;50.336;3.536;2023-04-29T06:33:16;33.88;;;19.67;;
60006;SDS011;45863;50.336;3.536;2023-04-29T06:35:41;34.00;;;18.10;;
60006;SDS011;45863;50.336;3.536;2023-04-29T06:38:06;29.48;;;17.92;;
60006;SDS011;45863;50.336;3.536;2023-04-29T06:40:32;27.48;;;17.15;;
60006;SDS011;45863;50.336;3.536;2023-04-29T06:42:58;31.45;;;16.67;;
60006;SDS011;45863;50.336;3.536;2023-04-29T06:45:23;27.73;;;16.07;;
60006;SDS011;45863;50.336;3.536;2023-04-29T06:47:49;27.38;;;15.15;;
60006;SDS011;45863;50.336;3.536;2023-04-29T06:50:14;27.60;;;16.20;;
60006;SDS011;45863;50.336;3.536;2023-04-29T06:52:40;24.38;;;15.25;;
60006;SDS011;45863;50.336;3.536;2023-04-29T06:55:05;28.58;;;16.00;;
60006;SDS011;45863;50.336;3.536;2023-04-29T06:57:31;26.35;;;15.85;;
60006;SDS011;45863;50.336;3.536;2023-04-29T06:59:56;28.17;;;17.02;;
60006;SDS011;45863;50.336;3.536;2023-04-29T07:02:21;24.98;;;15.48;;
60006;SDS011;45863;50.336;3.536;2023-04-29T07:04:47;28.08;;;16.80;;
60006;SDS011;45863;50.336;3.536;2023-04-29T07:07:13;26.77;;;14.73;;
60006;SDS011;45863;50.336;3.536;2023-04-29T07:09:39;25.63;;;14.38;;
60006;SDS011;45863;50.336;3.536;2023-04-29T07:12:04;25.90;;;15.65;;
60006;SDS011;45863;50.336;3.536;2023-04-29T07:14:29;26.83;;;14.57;;
60006;SDS011;45863;50.336;3.536;2023-04-29T07:16:55;26.25;;;14.38;;
60006;SDS011;45863;50.336;3.536;2023-04-29T07:19:21;27.50;;;14.90;;
60006;SDS011;45863;50.336;3.536;2023-04-29T07:21:46;21.73;;;13.75;;
60006;SDS011;45863;50.336;3.536;2023-04-29T07:24:11;20.67;;;13.77;;
60006;SDS011;45863;50.336;3.536;2023-04-29T07:26:37;21.55;;;13.63;;
60006;SDS011;45863;50.336;3.536;2023-04-29T07:29:02;29.35;;;13.48;;
60006;SDS011;45863;50.336;3.536;2023-04-29T07:31:27;24.87;;;12.93;;
60006;SDS011;45863;50.336;3.536;2023-04-29T07:33:53;26.58;;;15.10;;
60006;SDS011;45863;50.336;3.536;2023-04-29T07:36:19;30.52;;;16.13;;
60006;SDS011;45863;50.336;3.536;2023-04-29T07:38:44;27.63;;;15.35;;
60006;SDS011;45863;50.336;3.536;2023-04-29T07:41:09;29.85;;;15.48;;
60006;SDS011;45863;50.336;3.536;2023-04-29T07:43:34;28.98;;;15.73;;
60006;SDS011;45863;50.336;3.536;2023-04-29T07:46:00;25.92;;;14.70;;
60006;SDS011;45863;50.336;3.536;2023-04-29T07:48:25;29.60;;;16.55;;
60006;SDS011;45863;50.336;3.536;2023-04-29T07:50:50;25.10;;;15.88;;
60006;SDS011;45863;50.336;3.536;2023-04-29T07:53:16;31.17;;;17.93;;
60006;SDS011;45863;50.336;3.536;2023-04-29T07:55:42;31.88;;;18.45;;
60006;SDS011;45863;50.336;3.536;2023-04-29T07:58:07;32.00;;;18.58;;
60006;SDS011;45863;50.336;3.536;2023-04-29T08:00:32;27.20;;;17.20;;
60006;SDS011;45863;50.336;3.536;2023-04-29T08:02:57;29.85;;;18.05;;
60006;SDS011;45863;50.336;3.536;2023-04-29T08:05:23;29.98;;;16.15;;
60006;SDS011;45863;50.336;3.536;2023-04-29T08:07:49;30.45;;;17.67;;
60006;SDS011;45863;50.336;3.536;2023-04-29T08:10:15;34.47;;;19.15;;
60006;SDS011;45863;50.336;3.536;2023-04-29T08:12:40;30.48;;;17.25;;
60006;SDS011;45863;50.336;3.536;2023-04-29T08:15:06;28.38;;;16.85;;
60006;SDS011;45863;50.336;3.536;2023-04-29T08:17:31;30.48;;;17.45;;
60006;SDS011;45863;50.336;3.536;2023-04-29T08:19:56;31.95;;;15.73;;
60006;SDS011;45863;50.336;3.536;2023-04-29T08:22:21;29.95;;;16.75;;
60006;SDS011;45863;50.336;3.536;2023-04-29T08:24:47;24.58;;;15.60;;
60006;SDS011;45863;50.336;3.536;2023-04-29T08:27:12;23.90;;;14.30;;
60006;SDS011;45863;50.336;3.536;2023-04-29T08:29:39;28.02;;;15.05;;
60006;SDS011;45863;50.336;3.536;2023-04-29T08:32:04;24.23;;;16.23;;
60006;SDS011;45863;50.336;3.536;2023-04-29T08:34:29;26.48;;;17.35;;
60006;SDS011;45863;50.336;3.536;2023-04-29T08:36:56;28.48;;;16.45;;
60006;SDS011;45863;50.336;3.536;2023-04-29T08:39:21;29.58;;;16.17;;
60006;SDS011;45863;50.336;3.536;2023-04-29T08:41:46;26.95;;;15.95;;
60006;SDS011;45863;50.336;3.536;2023-04-29T08:44:15;25.23;;;13.95;;
60006;SDS011;45863;50.336;3.536;2023-04-29T08:46:41;23.48;;;13.70;;
60006;SDS011;45863;50.336;3.536;2023-04-29T08:49:07;22.48;;;13.18;;
60006;SDS011;45863;50.336;3.536;2023-04-29T08:51:33;23.80;;;13.23;;
60006;SDS011;45863;50.336;3.536;2023-04-29T08:53:58;22.25;;;12.90;;
60006;SDS011;45863;50.336;3.536;2023-04-29T08:56:24;23.67;;;13.77;;
60006;SDS011;45863;50.336;3.536;2023-04-29T08:58:51;22.02;;;13.32;;
60006;SDS011;45863;50.336;3.536;2023-04-29T09:01:18;22.70;;;13.30;;
60006;SDS011;45863;50.336;3.536;2023-04-29T09:03:53;29.88;;;18.90;;
60006;SDS011;45863;50.336;3.536;2023-04-29T09:06:19;31.52;;;19.80;;
60006;SDS011;45863;50.336;3.536;2023-04-29T09:08:45;29.20;;;15.35;;
60006;SDS011;45863;50.336;3.536;2023-04-29T09:11:11;28.27;;;14.63;;
60006;SDS011;45863;50.336;3.536;2023-04-29T09:13:36;26.48;;;14.48;;
60006;SDS011;45863;50.336;3.536;2023-04-29T09:16:01;28.60;;;15.17;;
60006;SDS011;45863;50.336;3.536;2023-04-29T09:18:46;28.95;;;14.98;;
60006;SDS011;45863;50.336;3.536;2023-04-29T09:21:19;28.77;;;15.10;;
60006;SDS011;45863;50.336;3.536;2023-04-29T09:23:45;26.52;;;14.73;;
60006;SDS011;45863;50.336;3.536;2023-04-29T09:26:11;29.85;;;15.93;;
60006;SDS011;45863;50.336;3.536;2023-04-29T09:28:37;28.92;;;16.83;;
60006;SDS011;45863;50.336;3.536;2023-04-29T09:31:03;36.10;;;17.38;;
60006;SDS011;45863;50.336;3.536;2023-04-29T09:33:30;29.92;;;18.17;;
60006;SDS011;45863;50.336;3.536;2023-04-29T09:35:56;29.52;;;15.85;;
60006;SDS011;45863;50.336;3.536;2023-04-29T09:38:21;31.57;;;16.70;;
60006;SDS011;45863;50.336;3.536;2023-04-29T09:40:46;30.13;;;16.25;;
60006;SDS011;45863;50.336;3.536;2023-04-29T09:43:12;30.70;;;16.08;;
60006;SDS011;45863;50.336;3.536;2023-04-29T09:45:42;29.63;;;15.85;;
60006;SDS011;45863;50.336;3.536;2023-04-29T09:48:08;28.92;;;15.48;;
60006;SDS011;45863;50.336;3.536;2023-04-29T09:50:34;26.08;;;14.13;;
60006;SDS011;45863;50.336;3.536;2023-04-29T09:53:05;24.60;;;14.73;;
60006;SDS011;45863;50.336;3.536;2023-04-29T09:55:33;27.77;;;16.17;;
60006;SDS011;45863;50.336;3.536;2023-04-29T09:57:58;25.33;;;14.27;;
60006;SDS011;45863;50.336;3.536;2023-04-29T10:00:24;25.33;;;15.43;;
60006;SDS011;45863;50.336;3.536;2023-04-29T10:02:52;25.30;;;13.93;;
60006;SDS011;45863;50.336;3.536;2023-04-29T10:05:18;26.58;;;13.98;;
60006;SDS011;45863;50.336;3.536;2023-04-29T10:07:45;27.30;;;14.63;;
60006;SDS011;45863;50.336;3.536;2023-04-29T10:10:13;25.85;;;15.57;;
60006;SDS011;45863;50.336;3.536;2023-04-29T10:12:44;23.58;;;14.02;;
60006;SDS011;45863;50.336;3.536;2023-04-29T10:18:02;25.02;;;14.63;;
60006;SDS011;45863;50.336;3.536;2023-04-29T10:20:31;28.73;;;15.25;;
60006;SDS011;45863;50.336;3.536;2023-04-29T10:22:57;27.00;;;16.30;;
60006;SDS011;45863;50.336;3.536;2023-04-29T10:25:25;27.10;;;16.65;;
60006;SDS011;45863;50.336;3.536;2023-04-29T10:27:52;28.50;;;17.48;;
60006;SDS011;45863;50.336;3.536;2023-04-29T10:30:19;30.73;;;17.55;;
60006;SDS011;45863;50.336;3.536;2023-04-29T10:32:46;31.50;;;17.58;;
60006;SDS011;45863;50.336;3.536;2023-04-29T10:35:12;34.55;;;17.30;;
60006;SDS011;45863;50.336;3.536;2023-04-29T10:37:40;32.05;;;18.02;;
60006;SDS011;45863;50.336;3.536;2023-04-29T10:40:12;31.25;;;17.80;;
60006;SDS011;45863;50.336;3.536;2023-04-29T10:42:44;33.17;;;19.10;;
60006;SDS011;45863;50.336;3.536;2023-04-29T10:50:33;28.02;;;17.42;;
60006;SDS011;45863;50.336;3.536;2023-04-29T10:53:02;32.85;;;18.77;;
60006;SDS011;45863;50.336;3.536;2023-04-29T10:55:28;32.67;;;19.15;;
60006;SDS011;45863;50.336;3.536;2023-04-29T10:57:54;29.48;;;18.77;;
60006;SDS011;45863;50.336;3.536;2023-04-29T11:00:27;32.63;;;19.92;;
60006;SDS011;45863;50.336;3.536;2023-04-29T11:02:53;32.38;;;20.05;;
60006;SDS011;45863;50.336;3.536;2023-04-29T11:05:28;33.75;;;21.50;;
60006;SDS011;45863;50.336;3.536;2023-04-29T11:08:19;62.20;;;35.65;;
60006;SDS011;45863;50.336;3.536;2023-04-29T11:10:47;43.88;;;27.10;;
60006;SDS011;45863;50.336;3.536;2023-04-29T11:13:26;35.80;;;22.35;;
60006;SDS011;45863;50.336;3.536;2023-04-29T11:15:52;31.30;;;19.33;;
60006;SDS011;45863;50.336;3.536;2023-04-29T11:18:17;37.08;;;21.25;;
60006;SDS011;45863;50.336;3.536;2023-04-29T11:21:28;32.33;;;18.88;;
60006;SDS011;45863;50.336;3.536;2023-04-29T11:23:28;26.73;;;19.90;;
60006;SDS011;45863;50.336;3.536;2023-04-29T11:25:53;35.20;;;20.55;;
60006;SDS011;45863;50.336;3.536;2023-04-29T11:28:18;27.30;;;19.05;;
60006;SDS011;45863;50.336;3.536;2023-04-29T11:30:44;30.23;;;19.73;;
60006;SDS011;45863;50.336;3.536;2023-04-29T11:33:10;27.10;;;17.75;;
60006;SDS011;45863;50.336;3.536;2023-04-29T11:35:35;32.45;;;19.10;;
60006;SDS011;45863;50.336;3.536;2023-04-29T11:38:03;28.08;;;17.88;;
60006;SDS011;45863;50.336;3.536;2023-04-29T11:40:29;29.38;;;18.10;;
60006;SDS011;45863;50.336;3.536;2023-04-29T11:42:56;29.13;;;18.77;;
60006;SDS011;45863;50.336;3.536;2023-04-29T11:45:22;32.67;;;20.13;;
60006;SDS011;45863;50.336;3.536;2023-04-29T11:47:47;30.65;;;18.95;;
60006;SDS011;45863;50.336;3.536;2023-04-29T11:50:14;26.50;;;16.67;;
60006;SDS011;45863;50.336;3.536;2023-04-29T11:52:45;27.25;;;18.00;;
60006;SDS011;45863;50.336;3.536;2023-04-29T11:55:10;25.65;;;15.82;;
60006;SDS011;45863;50.336;3.536;2023-04-29T11:57:36;26.05;;;16.70;;
60006;SDS011;45863;50.336;3.536;2023-04-29T12:00:02;26.58;;;16.75;;
60006;SDS011;45863;50.336;3.536;2023-04-29T12:02:32;27.00;;;16.65;;
60006;SDS011;45863;50.336;3.536;2023-04-29T12:04:58;24.58;;;17.48;;
60006;SDS011;45863;50.336;3.536;2023-04-29T12:07:25;27.48;;;17.10;;
60006;SDS011;45863;50.336;3.536;2023-04-29T12:09:50;29.83;;;17.58;;
60006;SDS011;45863;50.336;3.536;2023-04-29T12:12:15;30.88;;;18.65;;
60006;SDS011;45863;50.336;3.536;2023-04-29T12:14:41;30.23;;;18.17;;
60006;SDS011;45863;50.336;3.536;2023-04-29T12:17:07;25.50;;;17.42;;
60006;SDS011;45863;50.336;3.536;2023-04-29T12:19:33;29.55;;;19.23;;
60006;SDS011;45863;50.336;3.536;2023-04-29T12:21:59;25.95;;;17.67;;
60006;SDS011;45863;50.336;3.536;2023-04-29T12:24:24;31.83;;;18.77;;
60006;SDS011;45863;50.336;3.536;2023-04-29T12:26:50;27.73;;;18.00;;
60006;SDS011;45863;50.336;3.536;2023-04-29T12:29:19;28.05;;;17.13;;
60006;SDS011;45863;50.336;3.536;2023-04-29T12:31:46;26.60;;;17.25;;
60006;SDS011;45863;50.336;3.536;2023-04-29T12:34:11;26.42;;;17.35;;
60006;SDS011;45863;50.336;3.536;2023-04-29T12:36:36;25.73;;;17.10;;
60006;SDS011;45863;50.336;3.536;2023-04-29T12:39:04;27.83;;;17.08;;
60006;SDS011;45863;50.336;3.536;2023-04-29T12:41:37;25.83;;;16.35;;
60006;SDS011;45863;50.336;3.536;2023-04-29T12:44:04;24.48;;;16.58;;
60006;SDS011;45863;50.336;3.536;2023-04-29T12:46:33;23.77;;;16.83;;
60006;SDS011;45863;50.336;3.536;2023-04-29T12:49:00;25.83;;;16.58;;
60006;SDS011;45863;50.336;3.536;2023-04-29T12:51:26;24.13;;;17.17;;
60006;SDS011;45863;50.336;3.536;2023-04-29T12:53:51;27.17;;;16.85;;
60006;SDS011;45863;50.336;3.536;2023-04-29T12:56:16;31.30;;;18.48;;
60006;SDS011;45863;50.336;3.536;2023-04-29T12:58:42;32.05;;;18.17;;
60006;SDS011;45863;50.336;3.536;2023-04-29T13:01:07;27.15;;;17.95;;
60006;SDS011;45863;50.336;3.536;2023-04-29T13:03:32;26.93;;;17.97;;
60006;SDS011;45863;50.336;3.536;2023-04-29T13:05:58;24.98;;;16.98;;
60006;SDS011;45863;50.336;3.536;2023-04-29T13:08:23;25.80;;;17.67;;
60006;SDS011;45863;50.336;3.536;2023-04-29T13:10:48;25.30;;;15.93;;
60006;SDS011;45863;50.336;3.536;2023-04-29T13:13:13;26.45;;;18.33;;
60006;SDS011;45863;50.336;3.536;2023-04-29T13:15:39;30.05;;;19.90;;
60006;SDS011;45863;50.336;3.536;2023-04-29T13:18:04;36.65;;;22.17;;
60006;SDS011;45863;50.336;3.536;2023-04-29T13:20:29;34.17;;;20.73;;
60006;SDS011;45863;50.336;3.536;2023-04-29T13:22:56;29.75;;;18.30;;
60006;SDS011;45863;50.336;3.536;2023-04-29T13:25:21;24.87;;;17.70;;
60006;SDS011;45863;50.336;3.536;2023-04-29T13:27:46;32.83;;;18.17;;
60006;SDS011;45863;50.336;3.536;2023-04-29T13:30:12;22.70;;;17.00;;
60006;SDS011;45863;50.336;3.536;2023-04-29T13:32:37;26.80;;;17.35;;
60006;SDS011;45863;50.336;3.536;2023-04-29T13:35:04;23.20;;;17.00;;
60006;SDS011;45863;50.336;3.536;2023-04-29T13:37:29;23.52;;;15.80;;
60006;SDS011;45863;50.336;3.536;2023-04-29T13:39:54;20.85;;;14.75;;
60006;SDS011;45863;50.336;3.536;2023-04-29T13:42:19;21.43;;;14.63;;
60006;SDS011;45863;50.336;3.536;2023-04-29T13:44:45;18.53;;;14.03;;
60006;SDS011;45863;50.336;3.536;2023-04-29T13:47:10;21.17;;;14.27;;
60006;SDS011;45863;50.336;3.536;2023-04-29T13:49:36;20.73;;;13.60;;
60006;SDS011;45863;50.336;3.536;2023-04-29T13:52:02;18.95;;;14.68;;
60006;SDS011;45863;50.336;3.536;2023-04-29T13:54:27;21.73;;;14.93;;
60006;SDS011;45863;50.336;3.536;2023-04-29T13:56:52;23.97;;;16.57;;
60006;SDS011;45863;50.336;3.536;2023-04-29T13:59:18;20.83;;;15.38;;
60006;SDS011;45863;50.336;3.536;2023-04-29T14:01:43;24.15;;;17.10;;
60006;SDS011;45863;50.336;3.536;2023-04-29T14:04:09;24.80;;;16.60;;
60006;SDS011;45863;50.336;3.536;2023-04-29T14:06:35;22.50;;;16.20;;
60006;SDS011;45863;50.336;3.536;2023-04-29T14:09:00;20.38;;;15.82;;
60006;SDS011;45863;50.336;3.536;2023-04-29T14:11:25;22.63;;;16.35;;
60006;SDS011;45863;50.336;3.536;2023-04-29T14:13:51;25.10;;;17.70;;
60006;SDS011;45863;50.336;3.536;2023-04-29T14:16:16;30.10;;;17.25;;
60006;SDS011;45863;50.336;3.536;2023-04-29T14:18:41;28.40;;;16.90;;
60006;SDS011;45863;50.336;3.536;2023-04-29T14:21:07;27.33;;;17.75;;
60006;SDS011;45863;50.336;3.536;2023-04-29T14:23:32;23.50;;;16.87;;
60006;SDS011;45863;50.336;3.536;2023-04-29T14:25:57;25.03;;;17.50;;
60006;SDS011;45863;50.336;3.536;2023-04-29T14:28:22;35.63;;;17.70;;
60006;SDS011;45863;50.336;3.536;2023-04-29T14:30:47;25.53;;;17.57;;
60006;SDS011;45863;50.336;3.536;2023-04-29T14:33:13;25.57;;;17.37;;
60006;SDS011;45863;50.336;3.536;2023-04-29T14:35:38;26.27;;;17.47;;